createdAt,value
2022-12-31T00:00:52.484Z,4.00
2022-12-31T00:03:52.483Z,3.98
2022-12-31T00:06:52.495Z,3.87
2022-12-31T00:09:52.479Z,3.87
2022-12-31T00:12:52.489Z,3.89
2022-12-31T00:15:53.457Z,3.86
2022-12-31T00:18:57.491Z,3.85
2022-12-31T00:21:57.435Z,3.81
2022-12-31T00:24:58.469Z,3.79
2022-12-31T00:27:58.458Z,3.79
2022-12-31T00:30:58.503Z,3.74
2022-12-31T00:33:58.470Z,3.72
2022-12-31T00:36:58.449Z,3.62
2022-12-31T00:39:58.478Z,3.70
2022-12-31T00:42:58.489Z,3.72
2022-12-31T00:45:58.509Z,3.67
2022-12-31T00:48:58.465Z,3.65
2022-12-31T00:51:58.477Z,3.62
2022-12-31T00:54:58.443Z,3.60
2022-12-31T00:57:58.481Z,3.58
2022-12-31T01:00:58.450Z,3.57
2022-12-31T01:03:58.446Z,3.56
2022-12-31T01:06:58.495Z,3.55
2022-12-31T01:10:00.491Z,3.54
2022-12-31T01:13:00.482Z,3.47
2022-12-31T01:16:00.487Z,3.51
2022-12-31T01:19:00.471Z,3.45
2022-12-31T01:22:00.459Z,3.50
2022-12-31T01:25:00.490Z,3.52
2022-12-31T01:28:00.503Z,3.43
2022-12-31T01:31:00.499Z,3.44
2022-12-31T01:34:00.481Z,3.44
2022-12-31T01:37:00.465Z,3.29
2022-12-31T01:40:00.467Z,3.36
2022-12-31T01:43:07.477Z,3.37
2022-12-31T01:46:07.463Z,3.32
2022-12-31T01:49:04.534Z,3.33
2022-12-31T01:52:16.469Z,3.32
2022-12-31T01:55:30.495Z,3.32
2022-12-31T01:58:35.477Z,3.32
2022-12-31T02:01:39.594Z,3.24
2022-12-31T02:04:40.447Z,3.33
2022-12-31T02:07:40.492Z,3.22
2022-12-31T02:10:40.458Z,3.27
2022-12-31T02:13:40.491Z,3.26
2022-12-31T02:16:47.473Z,3.32
2022-12-31T02:20:12.444Z,3.27
2022-12-31T02:23:28.456Z,3.37
2022-12-31T02:26:56.449Z,3.25
2022-12-31T02:30:19.449Z,3.38
2022-12-31T02:33:46.462Z,3.38
2022-12-31T02:36:49.434Z,3.40
2022-12-31T02:39:50.482Z,3.40
2022-12-31T02:42:55.341Z,3.40
2022-12-31T02:45:59.469Z,3.41
2022-12-31T02:49:05.479Z,3.29
2022-12-31T02:52:14.484Z,3.33
2022-12-31T02:55:23.429Z,3.34
2022-12-31T02:58:28.485Z,3.43
2022-12-31T03:01:51.548Z,3.46
2022-12-31T03:04:51.430Z,3.46
2022-12-31T03:07:53.475Z,3.35
2022-12-31T03:10:53.478Z,3.43
2022-12-31T03:13:53.473Z,3.46
2022-12-31T03:16:53.470Z,3.33
2022-12-31T03:20:25.478Z,3.46
2022-12-31T03:23:28.436Z,3.45
2022-12-31T03:26:28.492Z,3.45
2022-12-31T03:29:28.484Z,3.44
2022-12-31T03:32:28.452Z,3.31
2022-12-31T03:35:29.478Z,3.44
2022-12-31T03:38:29.463Z,3.38
2022-12-31T03:41:29.440Z,3.47
2022-12-31T03:44:29.482Z,3.47
2022-12-31T03:47:29.453Z,3.38
2022-12-31T03:50:31.470Z,3.47
2022-12-31T03:53:31.478Z,3.49
2022-12-31T03:56:31.457Z,3.48
2022-12-31T03:59:31.442Z,3.48
2022-12-31T04:02:31.594Z,3.46
2022-12-31T04:05:32.460Z,3.37
2022-12-31T04:08:33.480Z,3.50
2022-12-31T04:11:33.477Z,3.47
2022-12-31T04:14:33.463Z,3.52
2022-12-31T04:17:33.448Z,3.52
2022-12-31T04:20:33.434Z,3.55
2022-12-31T04:23:33.462Z,3.49
2022-12-31T04:26:33.449Z,3.61
2022-12-31T04:29:33.435Z,3.62
2022-12-31T04:32:35.472Z,3.57
2022-12-31T04:35:35.429Z,3.57
2022-12-31T04:38:36.482Z,3.70
2022-12-31T04:41:36.425Z,3.56
2022-12-31T04:44:36.487Z,3.66
2022-12-31T04:47:36.432Z,3.65
2022-12-31T04:50:36.448Z,3.77
2022-12-31T04:53:36.432Z,3.82
2022-12-31T04:56:37.442Z,3.84
2022-12-31T04:59:37.434Z,3.83
2022-12-31T05:02:37.664Z,3.83
2022-12-31T05:05:37.439Z,3.78
2022-12-31T05:08:37.429Z,3.76
2022-12-31T05:11:37.465Z,3.79
2022-12-31T05:14:37.413Z,3.82
2022-12-31T05:17:37.448Z,3.66
2022-12-31T05:20:37.466Z,3.80
2022-12-31T05:23:37.435Z,3.75
2022-12-31T05:26:37.420Z,3.80
2022-12-31T05:29:37.482Z,3.74
2022-12-31T05:32:37.473Z,3.63
2022-12-31T05:35:37.486Z,3.53
2022-12-31T05:38:37.464Z,3.52
2022-12-31T05:41:37.454Z,3.30
2022-12-31T05:44:37.479Z,3.20
2022-12-31T05:47:37.452Z,3.19
2022-12-31T05:50:37.429Z,3.04
2022-12-31T05:53:37.433Z,2.87
2022-12-31T05:56:37.428Z,2.96
2022-12-31T05:59:37.456Z,2.86
2022-12-31T06:02:37.547Z,2.78
2022-12-31T06:05:37.407Z,2.80
2022-12-31T06:08:37.444Z,2.78
2022-12-31T06:11:37.461Z,2.90
2022-12-31T06:14:42.188Z,2.94
2022-12-31T06:17:45.438Z,2.97
2022-12-31T06:20:45.475Z,2.95
2022-12-31T06:23:45.432Z,3.09
2022-12-31T06:26:45.432Z,3.10
2022-12-31T06:29:45.433Z,3.11
2022-12-31T06:32:46.423Z,3.24
2022-12-31T06:35:46.473Z,3.27
2022-12-31T06:38:47.465Z,3.26
2022-12-31T06:41:47.437Z,3.39
2022-12-31T06:44:47.422Z,3.33
2022-12-31T06:47:47.476Z,3.46
2022-12-31T06:50:47.469Z,3.50
2022-12-31T06:53:47.489Z,3.55
2022-12-31T06:56:40.852Z,3.47
2022-12-31T06:59:42.498Z,3.23
2022-12-31T07:03:20.529Z,3.47
2022-12-31T07:06:28.438Z,3.60
2022-12-31T07:09:46.471Z,3.62
2022-12-31T07:12:59.447Z,3.54
2022-12-31T07:16:14.468Z,3.60
2022-12-31T07:19:37.454Z,3.60
2022-12-31T07:22:37.458Z,3.67
2022-12-31T07:25:37.452Z,3.57
2022-12-31T07:28:50.466Z,3.73
2022-12-31T07:32:04.467Z,3.88
2022-12-31T07:35:20.466Z,3.94
2022-12-31T07:38:43.479Z,3.99
2022-12-31T07:41:49.427Z,4.09
2022-12-31T07:45:31.431Z,4.16
2022-12-31T07:48:49.426Z,4.16
2022-12-31T07:51:49.473Z,4.30
2022-12-31T07:54:49.462Z,4.30
2022-12-31T07:58:15.488Z,4.39
2022-12-31T08:01:15.522Z,4.53
2022-12-31T08:04:21.440Z,4.46
2022-12-31T08:07:48.436Z,4.56
2022-12-31T08:11:13.470Z,4.60
2022-12-31T08:14:15.428Z,4.58
2022-12-31T08:17:15.414Z,4.62
2022-12-31T08:20:08.460Z,4.67
2022-12-31T08:23:20.454Z,4.76
2022-12-31T08:26:28.473Z,4.76
2022-12-31T08:29:37.426Z,4.80
2022-12-31T08:32:51.457Z,5.12
2022-12-31T08:36:01.460Z,6.06
2022-12-31T08:39:15.435Z,6.99
2022-12-31T08:42:17.469Z,7.81
2022-12-31T08:45:26.526Z,8.72
2022-12-31T08:48:35.433Z,9.04
2022-12-31T08:51:37.462Z,9.16
2022-12-31T08:54:37.456Z,8.96
2022-12-31T08:57:47.435Z,8.68
2022-12-31T09:00:49.449Z,9.07
2022-12-31T09:03:58.500Z,8.88
2022-12-31T09:07:07.425Z,8.72
2022-12-31T09:10:20.447Z,8.43
2022-12-31T09:13:21.429Z,8.24
2022-12-31T09:16:21.471Z,8.05
2022-12-31T09:19:22.415Z,7.98
2022-12-31T09:22:24.450Z,7.73
2022-12-31T09:25:30.421Z,7.87
2022-12-31T09:29:17.476Z,7.88
2022-12-31T09:32:19.487Z,7.68
2022-12-31T09:35:48.438Z,7.49
2022-12-31T09:38:48.455Z,7.55
2022-12-31T09:42:03.407Z,7.99
2022-12-31T09:45:16.430Z,8.48
2022-12-31T09:48:22.458Z,8.12
2022-12-31T09:51:42.428Z,8.37
2022-12-31T09:55:03.459Z,7.89
2022-12-31T09:58:12.481Z,7.66
2022-12-31T10:01:24.621Z,7.63
2022-12-31T10:04:55.444Z,7.66
2022-12-31T10:07:55.396Z,7.74
2022-12-31T10:11:07.428Z,7.71
2022-12-31T10:14:43.684Z,7.66
2022-12-31T10:18:10.543Z,7.44
2022-12-31T10:21:47.445Z,7.25
2022-12-31T10:25:02.423Z,7.34
2022-12-31T10:28:11.497Z,7.07
2022-12-31T10:31:24.474Z,7.15
2022-12-31T10:34:44.463Z,7.09
2022-12-31T10:37:59.467Z,6.90
2022-12-31T10:41:04.470Z,7.13
2022-12-31T10:44:33.430Z,7.30
2022-12-31T10:48:00.427Z,7.28
2022-12-31T10:51:12.444Z,7.26
2022-12-31T10:54:36.469Z,7.28
2022-12-31T10:58:05.437Z,7.20
2022-12-31T11:01:23.556Z,7.29
2022-12-31T11:05:17.418Z,7.28
2022-12-31T11:08:42.459Z,7.34
2022-12-31T11:11:47.421Z,7.38
2022-12-31T11:15:14.471Z,7.54
2022-12-31T11:18:39.411Z,7.54
2022-12-31T11:21:48.409Z,7.38
2022-12-31T11:25:19.461Z,7.81
2022-12-31T11:28:36.477Z,7.69
2022-12-31T11:31:36.411Z,7.82
2022-12-31T11:34:45.430Z,7.84
2022-12-31T11:37:50.413Z,7.73
2022-12-31T11:41:14.453Z,7.63
2022-12-31T11:44:33.450Z,7.63
2022-12-31T11:47:33.463Z,7.57
2022-12-31T11:50:41.439Z,7.63
2022-12-31T11:53:53.431Z,7.74
2022-12-31T11:57:00.440Z,7.55
2022-12-31T12:00:00.464Z,7.47
2022-12-31T12:03:07.478Z,7.54
2022-12-31T12:06:09.437Z,7.53
2022-12-31T12:09:12.418Z,7.60
2022-12-31T12:12:18.443Z,7.63
2022-12-31T12:15:22.464Z,7.34
2022-12-31T12:18:26.475Z,7.41
2022-12-31T12:21:30.432Z,7.71
2022-12-31T12:24:34.424Z,7.75
2022-12-31T12:27:41.450Z,7.90
2022-12-31T12:30:41.466Z,7.77
2022-12-31T12:33:43.428Z,7.65
2022-12-31T12:36:43.451Z,7.56
2022-12-31T12:39:47.436Z,7.58
2022-12-31T12:42:47.423Z,7.51
2022-12-31T12:45:58.459Z,7.47
2022-12-31T12:49:00.405Z,7.42
2022-12-31T12:52:15.420Z,7.53
2022-12-31T12:55:37.414Z,7.54
2022-12-31T12:58:46.426Z,7.51
2022-12-31T13:01:58.660Z,7.57
2022-12-31T13:05:24.350Z,7.64
2022-12-31T13:08:27.475Z,7.63
2022-12-31T13:11:37.444Z,7.70
2022-12-31T13:14:59.397Z,7.72
2022-12-31T13:18:14.464Z,7.80
2022-12-31T13:21:27.433Z,7.89
2022-12-31T13:24:39.456Z,7.97
2022-12-31T13:27:48.454Z,7.92
2022-12-31T13:31:06.287Z,7.97
2022-12-31T13:34:10.450Z,7.97
2022-12-31T13:37:12.414Z,7.83
2022-12-31T13:40:19.403Z,7.96
2022-12-31T13:43:33.579Z,7.91
2022-12-31T13:46:47.455Z,7.87
2022-12-31T13:49:51.441Z,7.83
2022-12-31T13:53:09.414Z,7.78
2022-12-31T13:56:15.442Z,7.70
2022-12-31T13:59:19.402Z,7.62
2022-12-31T14:02:57.638Z,7.50
2022-12-31T14:06:08.453Z,7.40
2022-12-31T14:09:08.479Z,7.51
2022-12-31T14:12:27.455Z,7.58
2022-12-31T14:15:42.452Z,7.61
2022-12-31T14:19:01.411Z,7.62
2022-12-31T14:22:10.430Z,7.65
2022-12-31T14:25:12.434Z,7.70
2022-12-31T14:28:13.405Z,7.48
2022-12-31T14:31:25.451Z,7.71
2022-12-31T14:34:48.413Z,7.74
2022-12-31T14:37:57.445Z,7.68
2022-12-31T14:41:26.452Z,7.64
2022-12-31T14:44:40.420Z,7.65
2022-12-31T14:47:40.488Z,7.57
2022-12-31T14:50:44.453Z,7.63
2022-12-31T14:53:44.402Z,7.63
2022-12-31T14:56:51.454Z,7.62
2022-12-31T14:59:51.410Z,7.61
2022-12-31T15:03:05.461Z,7.57
2022-12-31T15:06:08.409Z,7.53
2022-12-31T15:09:33.429Z,7.51
2022-12-31T15:12:55.403Z,7.46
2022-12-31T15:15:58.425Z,7.42
2022-12-31T15:19:25.414Z,7.35
2022-12-31T15:22:44.427Z,7.35
2022-12-31T15:25:44.448Z,7.35
2022-12-31T15:28:46.453Z,7.33
2022-12-31T15:31:48.451Z,7.32
2022-12-31T15:34:50.422Z,7.35
2022-12-31T15:37:50.414Z,7.34
2022-12-31T15:41:02.464Z,7.33
2022-12-31T15:44:06.397Z,7.31
2022-12-31T15:47:11.459Z,7.29
2022-12-31T15:50:13.478Z,7.26
2022-12-31T15:53:15.455Z,7.23
2022-12-31T15:56:16.454Z,7.21
2022-12-31T15:59:18.460Z,7.19
2022-12-31T16:02:18.538Z,7.19
2022-12-31T16:05:18.442Z,7.16
2022-12-31T16:08:18.442Z,7.16
2022-12-31T16:11:19.440Z,7.14
2022-12-31T16:14:19.425Z,7.12
2022-12-31T16:17:19.456Z,7.11
2022-12-31T16:20:40.451Z,7.08
2022-12-31T16:23:42.619Z,7.07
2022-12-31T16:26:46.489Z,7.08
2022-12-31T16:29:55.479Z,7.01
2022-12-31T16:32:55.430Z,7.04
2022-12-31T16:35:55.449Z,7.01
2022-12-31T16:38:48.433Z,6.96
2022-12-31T16:41:28.531Z,6.82
2022-12-31T16:44:31.449Z,6.74
2022-12-31T16:47:12.536Z,6.64
2022-12-31T16:50:14.411Z,6.69
2022-12-31T16:52:55.876Z,6.69
2022-12-31T16:55:41.422Z,6.71
2022-12-31T16:58:32.454Z,6.70
2022-12-31T17:01:36.583Z,6.65
2022-12-31T17:04:41.485Z,6.75
2022-12-31T17:07:45.419Z,6.73
2022-12-31T17:10:49.396Z,6.65
2022-12-31T17:13:49.416Z,6.58
2022-12-31T17:17:10.408Z,6.50
2022-12-31T17:20:18.410Z,6.41
2022-12-31T17:23:20.430Z,6.18
2022-12-31T17:26:22.418Z,6.18
2022-12-31T17:29:32.448Z,6.01
2022-12-31T17:32:52.460Z,5.92
2022-12-31T17:35:54.449Z,5.83
2022-12-31T17:38:54.417Z,5.78
2022-12-31T17:41:58.444Z,5.70
2022-12-31T17:44:58.461Z,5.62
2022-12-31T17:48:04.417Z,5.66
2022-12-31T17:51:09.476Z,5.59
2022-12-31T17:54:09.410Z,5.52
2022-12-31T17:57:09.452Z,5.43
2022-12-31T18:00:09.456Z,5.42
2022-12-31T18:03:09.541Z,5.56
2022-12-31T18:06:16.049Z,5.54
2022-12-31T18:09:16.465Z,5.53
2022-12-31T18:12:17.469Z,5.51
2022-12-31T18:15:17.417Z,5.52
2022-12-31T18:18:31.445Z,5.41
2022-12-31T18:21:43.429Z,5.42
2022-12-31T18:24:43.424Z,5.34
2022-12-31T18:27:43.410Z,5.32
2022-12-31T18:30:44.456Z,5.35
2022-12-31T18:33:44.443Z,5.40
2022-12-31T18:36:44.465Z,5.42
2022-12-31T18:39:44.441Z,5.47
2022-12-31T18:42:44.430Z,5.56
2022-12-31T18:45:44.467Z,5.62
2022-12-31T18:48:44.453Z,5.47
2022-12-31T18:51:44.453Z,5.54
2022-12-31T18:54:44.407Z,5.62
2022-12-31T18:57:44.456Z,5.62
2022-12-31T19:00:44.492Z,5.62
2022-12-31T19:03:44.414Z,5.60
2022-12-31T19:06:44.412Z,5.53
2022-12-31T19:09:45.972Z,5.52
2022-12-31T19:12:46.416Z,5.41
2022-12-31T19:15:48.457Z,5.63
2022-12-31T19:18:48.445Z,5.64
2022-12-31T19:21:48.446Z,5.53
2022-12-31T19:24:48.418Z,5.66
2022-12-31T19:27:48.434Z,5.53
2022-12-31T19:30:48.440Z,5.56
2022-12-31T19:33:48.435Z,5.53
2022-12-31T19:36:48.469Z,5.40
2022-12-31T19:39:48.411Z,5.46
2022-12-31T19:42:48.467Z,5.39
2022-12-31T19:45:48.494Z,5.34
2022-12-31T19:48:48.420Z,5.45
2022-12-31T19:51:48.419Z,5.25
2022-12-31T19:54:48.458Z,5.30
2022-12-31T19:57:48.428Z,5.26
2022-12-31T20:00:55.612Z,5.28
2022-12-31T20:03:58.460Z,5.08
2022-12-31T20:06:58.445Z,4.94
2022-12-31T20:09:58.385Z,4.72
2022-12-31T20:12:58.386Z,4.81
2022-12-31T20:15:59.476Z,4.79
2022-12-31T20:19:00.385Z,4.75
2022-12-31T20:22:00.449Z,4.68
2022-12-31T20:25:00.400Z,4.54
2022-12-31T20:28:00.422Z,4.58
2022-12-31T20:31:00.455Z,4.54
2022-12-31T20:33:53.446Z,4.46
2022-12-31T20:36:32.566Z,4.51
2022-12-31T20:39:19.431Z,4.57
2022-12-31T20:41:58.515Z,4.38
2022-12-31T20:44:45.422Z,4.53
2022-12-31T20:47:24.541Z,4.43
2022-12-31T20:50:12.499Z,4.36
2022-12-31T20:52:58.443Z,4.18
2022-12-31T20:55:58.389Z,4.24
2022-12-31T20:58:58.439Z,4.18
2022-12-31T21:05:18.504Z,4.16
2022-12-31T21:08:18.448Z,4.13
2022-12-31T21:11:36.416Z,4.08
2022-12-31T21:14:39.934Z,4.02
2022-12-31T21:17:44.425Z,3.92
2022-12-31T21:20:44.427Z,3.98
2022-12-31T21:23:44.437Z,3.93
2022-12-31T21:26:44.457Z,3.86
2022-12-31T21:30:16.335Z,3.85
2022-12-31T21:33:04.453Z,3.78
2022-12-31T21:36:05.066Z,3.85
2022-12-31T21:39:04.413Z,3.80
2022-12-31T21:42:04.421Z,3.81
2022-12-31T21:45:04.472Z,3.92
2022-12-31T21:48:22.443Z,3.83
2022-12-31T21:51:24.413Z,3.82
2022-12-31T21:54:44.453Z,3.76
2022-12-31T21:58:15.687Z,3.74
2022-12-31T22:01:22.559Z,3.74
2022-12-31T22:05:00.326Z,3.74
2022-12-31T22:07:42.439Z,3.71
2022-12-31T22:10:50.286Z,3.63
2022-12-31T22:13:52.415Z,3.45
2022-12-31T22:16:52.401Z,3.41
2022-12-31T22:20:25.203Z,3.42
2022-12-31T22:23:12.429Z,3.39
2022-12-31T22:26:12.405Z,3.41
2022-12-31T22:29:12.400Z,3.44
2022-12-31T22:32:12.432Z,3.41
2022-12-31T22:35:05.517Z,3.46
2022-12-31T22:38:11.415Z,3.45
2022-12-31T22:41:24.444Z,3.41
2022-12-31T22:44:25.470Z,3.39
2022-12-31T22:47:25.451Z,3.28
2022-12-31T22:50:25.417Z,3.25
2022-12-31T22:53:25.421Z,3.37
2022-12-31T22:56:28.420Z,3.33
2022-12-31T22:59:28.388Z,3.29
2022-12-31T23:02:28.471Z,3.30
2022-12-31T23:05:28.453Z,3.17
2022-12-31T23:08:28.400Z,3.25
2022-12-31T23:11:28.402Z,3.13
2022-12-31T23:14:48.393Z,3.26
2022-12-31T23:18:07.408Z,3.23
2022-12-31T23:21:26.447Z,3.10
2022-12-31T23:24:26.767Z,3.11
2022-12-31T23:27:26.415Z,3.05
2022-12-31T23:30:26.424Z,3.04
2022-12-31T23:33:32.400Z,3.03
2022-12-31T23:36:32.454Z,2.99
2022-12-31T23:39:32.438Z,2.98
2022-12-31T23:42:32.442Z,3.02
2022-12-31T23:45:33.450Z,3.02
2022-12-31T23:48:33.422Z,3.02
2022-12-31T23:51:33.386Z,3.06
2022-12-31T23:54:33.385Z,3.05
2022-12-31T23:57:33.410Z,3.09
